createdAt,value
2022-09-16T00:01:12.884Z,97442.09
2022-09-16T00:03:40.703Z,97444.03
2022-09-16T00:06:07.922Z,97440.97
2022-09-16T00:08:34.888Z,97438.53
2022-09-16T00:11:02.443Z,97447.59
2022-09-16T00:13:29.511Z,97449.22
2022-09-16T00:15:56.683Z,97449.53
2022-09-16T00:18:23.749Z,97452.53
2022-09-16T00:20:51.548Z,97454.47
2022-09-16T00:23:18.735Z,97449.28
2022-09-16T00:25:49.845Z,97453.13
2022-09-16T00:28:16.878Z,97445.47
2022-09-16T00:30:43.863Z,97453.63
2022-09-16T00:33:11.013Z,97460.25
2022-09-16T00:35:37.976Z,97465.75
2022-09-16T00:38:04.910Z,97455.06
2022-09-16T00:40:32.014Z,97461.88
2022-09-16T00:43:00.511Z,97454.47
2022-09-16T00:45:31.789Z,97455.28
2022-09-16T00:48:01.756Z,97449.28
2022-09-16T00:50:54.569Z,97453.63
2022-09-16T00:53:23.675Z,97455.88
2022-09-16T00:55:51.610Z,97456.69
2022-09-16T00:58:38.405Z,97462.19
2022-09-16T01:01:06.014Z,97459.72
2022-09-16T01:03:38.605Z,97454.22
2022-09-16T01:06:05.748Z,97469.03
2022-09-16T01:08:50.032Z,97474.53
2022-09-16T01:11:39.867Z,97461.91
2022-09-16T01:14:49.639Z,97469.88
2022-09-16T01:17:46.025Z,97470.69
2022-09-16T01:20:52.505Z,97458.06
2022-09-16T01:23:44.250Z,97463.56
2022-09-16T01:26:41.959Z,97459.72
2022-09-16T01:29:23.746Z,97466.31
2022-09-16T01:32:19.247Z,97467.41
2022-09-16T01:35:03.039Z,97469.34
2022-09-16T01:37:39.270Z,97477.59
2022-09-16T01:40:12.107Z,97461.41
2022-09-16T01:42:43.732Z,97457.84
2022-09-16T01:45:20.864Z,97449.66
2022-09-16T01:48:10.618Z,97462.50
2022-09-16T01:50:46.822Z,97460.03
2022-09-16T01:53:25.884Z,97453.75
2022-09-16T01:55:54.112Z,97452.63
2022-09-16T01:58:26.737Z,97453.75
2022-09-16T02:00:55.711Z,97460.84
2022-09-16T02:03:34.251Z,97463.59
2022-09-16T02:06:03.730Z,97457.28
2022-09-16T02:08:58.167Z,97461.69
2022-09-16T02:11:25.145Z,97460.84
2022-09-16T02:13:58.705Z,97460.03
2022-09-16T02:16:34.579Z,97460.03
2022-09-16T02:19:02.940Z,97462.00
2022-09-16T02:21:30.264Z,97463.59
2022-09-16T02:23:59.897Z,97458.41
2022-09-16T02:26:29.622Z,97472.41
2022-09-16T02:28:56.674Z,97474.34
2022-09-16T02:31:27.598Z,97473.81
2022-09-16T02:33:57.956Z,97475.16
2022-09-16T02:36:25.569Z,97479.00
2022-09-16T02:38:55.956Z,97480.66
2022-09-16T02:41:23.286Z,97482.56
2022-09-16T02:43:50.365Z,97477.91
2022-09-16T02:46:26.249Z,97482.28
2022-09-16T02:49:06.104Z,97477.91
2022-09-16T02:51:45.163Z,97478.72
2022-09-16T02:54:57.952Z,97486.13
2022-09-16T02:57:24.887Z,97476.25
2022-09-16T02:59:51.861Z,97481.75
2022-09-16T03:02:18.795Z,97469.16
2022-09-16T03:04:45.889Z,97473.81
2022-09-16T03:07:13.023Z,97462.84
2022-09-16T03:09:42.968Z,97469.72
2022-09-16T03:12:33.927Z,97462.31
2022-09-16T03:15:19.352Z,97458.75
2022-09-16T03:18:02.634Z,97459.84
2022-09-16T03:20:32.310Z,97468.88
2022-09-16T03:23:08.180Z,97462.59
2022-09-16T03:26:10.029Z,97470.81
2022-09-16T03:28:47.148Z,97468.06
2022-09-16T03:31:19.467Z,97474.38
2022-09-16T03:34:02.988Z,97482.31
2022-09-16T03:36:33.717Z,97480.69
2022-09-16T03:39:01.251Z,97485.34
2022-09-16T03:41:31.855Z,97474.69
2022-09-16T03:44:03.736Z,97479.03
2022-09-16T03:46:31.220Z,97473.31
2022-09-16T03:48:58.274Z,97480.72
2022-09-16T03:51:25.557Z,97470.88
2022-09-16T03:53:53.007Z,97469.25
2022-09-16T03:56:20.083Z,97473.06
2022-09-16T03:58:49.735Z,97473.06
2022-09-16T04:01:16.943Z,97470.06
2022-09-16T04:03:43.964Z,97477.16
2022-09-16T04:06:10.935Z,97476.38
2022-09-16T04:08:39.919Z,97481.84
2022-09-16T04:11:06.993Z,97474.72
2022-09-16T04:13:34.567Z,97475.81
2022-09-16T04:16:02.447Z,97479.91
2022-09-16T04:18:31.295Z,97486.50
2022-09-16T04:20:59.175Z,97485.69
2022-09-16T04:23:26.976Z,97476.66
2022-09-16T04:26:00.674Z,97472.25
2022-09-16T04:28:27.791Z,97470.34
2022-09-16T04:30:54.828Z,97469.78
2022-09-16T04:33:21.795Z,97472.25
2022-09-16T04:35:48.742Z,97469.78
2022-09-16T04:38:15.713Z,97480.25
2022-09-16T04:40:42.669Z,97463.25
2022-09-16T04:43:09.849Z,97452.28
2022-09-16T04:45:36.805Z,97463.78
2022-09-16T04:48:03.783Z,97464.88
2022-09-16T04:50:30.747Z,97466.53
2022-09-16T04:52:57.698Z,97465.72
2022-09-16T04:55:24.747Z,97469.00
2022-09-16T04:57:52.660Z,97469.00
2022-09-16T05:00:19.674Z,97462.69
2022-09-16T05:02:46.800Z,97461.88
2022-09-16T05:05:13.893Z,97466.53
2022-09-16T05:07:40.817Z,97466.53
2022-09-16T05:10:08.206Z,97468.72
2022-09-16T05:12:35.203Z,97467.63
2022-09-16T05:15:02.102Z,97469.56
2022-09-16T05:17:50.381Z,97479.69
2022-09-16T05:20:18.170Z,97467.13
2022-09-16T05:22:45.147Z,97472.59
2022-09-16T05:25:12.135Z,97483.56
2022-09-16T05:27:39.135Z,97472.59
2022-09-16T05:30:06.569Z,97483.56
2022-09-16T05:32:33.543Z,97481.63
2022-09-16T05:35:00.767Z,97478.09
2022-09-16T05:37:27.710Z,97487.09
2022-09-16T05:39:55.511Z,97490.66
2022-09-16T05:42:22.506Z,97495.88
2022-09-16T05:44:49.486Z,97496.16
2022-09-16T05:47:16.473Z,97493.41
2022-09-16T05:49:43.450Z,97498.91
2022-09-16T05:52:10.432Z,97487.41
2022-09-16T05:54:37.337Z,97491.78
2022-09-16T05:57:07.116Z,97489.06
2022-09-16T05:59:34.376Z,97494.53
2022-09-16T06:02:01.356Z,97498.38
2022-09-16T06:04:28.393Z,97492.06
2022-09-16T06:06:55.357Z,97494.00
2022-09-16T06:09:23.614Z,97493.72
2022-09-16T06:11:51.994Z,97481.09
2022-09-16T06:14:19.568Z,97489.06
2022-09-16T06:16:46.704Z,97474.22
2022-09-16T06:19:15.719Z,97464.88
2022-09-16T06:21:43.969Z,97460.50
2022-09-16T06:24:11.578Z,97472.84
2022-09-16T06:26:39.339Z,97470.91
2022-09-16T06:29:06.678Z,97486.25
2022-09-16T06:31:33.683Z,97495.59
2022-09-16T06:34:00.661Z,97490.13
2022-09-16T06:36:40.339Z,97492.56
2022-09-16T06:39:11.749Z,97488.47
2022-09-16T06:41:38.706Z,97489.00
2022-09-16T06:44:05.615Z,97490.13
2022-09-16T06:46:32.586Z,97490.13
2022-09-16T06:49:04.555Z,97493.97
2022-09-16T06:51:32.719Z,97488.19
2022-09-16T06:54:01.139Z,97493.38
2022-09-16T06:56:28.049Z,97493.38
2022-09-16T06:58:56.010Z,97488.47
2022-09-16T07:01:24.934Z,97482.41
2022-09-16T07:03:52.791Z,97478.56
2022-09-16T07:06:20.604Z,97491.19
2022-09-16T07:08:47.696Z,97499.09
2022-09-16T07:11:16.874Z,97499.09
2022-09-16T07:13:44.206Z,97498.31
2022-09-16T07:16:14.176Z,97496.91
2022-09-16T07:18:41.915Z,97501.56
2022-09-16T07:21:14.101Z,97504.84
2022-09-16T07:23:41.313Z,97515.28
2022-09-16T07:26:13.924Z,97511.94
2022-09-16T07:28:41.460Z,97511.94
2022-09-16T07:31:10.461Z,97519.09
2022-09-16T07:33:40.908Z,97510.84
2022-09-16T07:36:09.296Z,97519.91
2022-09-16T07:38:36.446Z,97496.31
2022-09-16T07:41:24.772Z,97504.53
2022-09-16T07:43:51.729Z,97511.16
2022-09-16T07:46:20.094Z,97520.50
2022-09-16T07:48:48.092Z,97515.81
2022-09-16T07:51:16.806Z,97521.31
2022-09-16T07:53:44.106Z,97522.13
2022-09-16T07:56:18.493Z,97520.50
2022-09-16T07:58:46.076Z,97528.41
2022-09-16T08:01:13.658Z,97525.97
2022-09-16T08:03:40.667Z,97520.19
2022-09-16T08:06:09.838Z,97516.09
2022-09-16T08:08:36.816Z,97516.09
2022-09-16T08:11:04.178Z,97513.38
2022-09-16T08:13:32.397Z,97517.75
2022-09-16T08:16:07.492Z,97524.06
2022-09-16T08:18:34.583Z,97511.16
2022-09-16T08:21:15.669Z,97512.78
2022-09-16T08:23:42.791Z,97514.69
2022-09-16T08:26:11.061Z,97510.84
2022-09-16T08:28:51.105Z,97519.09
2022-09-16T08:31:25.927Z,97515.25
2022-09-16T08:33:52.986Z,97518.00
2022-09-16T08:36:21.621Z,97516.34
2022-09-16T08:38:50.297Z,97521.56
2022-09-16T08:41:30.786Z,97524.28
2022-09-16T08:44:19.418Z,97527.88
2022-09-16T08:47:11.438Z,97524.03
2022-09-16T08:49:47.731Z,97521.28
2022-09-16T08:52:17.729Z,97525.63
2022-09-16T08:54:48.433Z,97514.66
2022-09-16T08:57:18.154Z,97521.28
2022-09-16T09:00:04.571Z,97513.56
2022-09-16T09:05:33.582Z,97517.13
2022-09-16T09:08:15.888Z,97503.13
2022-09-16T09:10:52.653Z,97514.13
2022-09-16T09:13:43.841Z,97507.81
2022-09-16T09:16:17.991Z,97514.91
2022-09-16T09:18:48.505Z,97520.69
2022-09-16T09:21:19.615Z,97524.25
2022-09-16T09:23:52.681Z,97517.94
2022-09-16T09:26:49.947Z,97519.59
2022-09-16T09:29:25.956Z,97517.94
2022-09-16T09:32:06.670Z,97516.84
2022-09-16T09:34:38.402Z,97509.41
2022-09-16T09:37:18.834Z,97508.63
2022-09-16T09:40:17.293Z,97510.25
2022-09-16T09:43:06.084Z,97514.13
2022-09-16T09:45:44.462Z,97514.13
2022-09-16T09:48:45.797Z,97521.50
2022-09-16T09:51:32.522Z,97515.72
2022-09-16T09:54:06.802Z,97525.09
2022-09-16T09:56:40.542Z,97525.34
2022-09-16T09:59:28.760Z,97527.81
2022-09-16T10:01:56.849Z,97532.50
2022-09-16T10:04:24.048Z,97524.25
2022-09-16T10:06:52.295Z,97525.63
2022-09-16T10:09:19.384Z,97521.78
2022-09-16T10:11:55.769Z,97509.72
2022-09-16T10:14:30.275Z,97517.94
2022-09-16T10:16:57.308Z,97514.13
2022-09-16T10:19:27.996Z,97509.72
2022-09-16T10:21:57.067Z,97492.97
2022-09-16T10:24:31.953Z,97502.84
2022-09-16T10:26:59.543Z,97500.09
2022-09-16T10:29:26.655Z,97500.91
2022-09-16T10:31:53.816Z,97490.75
2022-09-16T10:34:39.982Z,97493.22
2022-09-16T10:37:13.355Z,97493.22
2022-09-16T10:39:42.883Z,97498.72
2022-09-16T10:42:23.196Z,97495.41
2022-09-16T10:44:51.748Z,97495.97
2022-09-16T10:47:29.533Z,97492.41
2022-09-16T10:50:05.337Z,97498.72
2022-09-16T10:52:40.769Z,97499.53
2022-09-16T10:55:30.926Z,97514.34
2022-09-16T10:58:16.051Z,97508.88
2022-09-16T11:00:55.251Z,97498.72
2022-09-16T11:03:56.462Z,97486.59
2022-09-16T11:06:47.804Z,97492.09
2022-09-16T11:09:31.007Z,97488.00
2022-09-16T11:12:19.396Z,97494.84
2022-09-16T11:15:12.164Z,97493.75
2022-09-16T11:17:47.999Z,97493.47
2022-09-16T11:20:30.089Z,97492.63
2022-09-16T11:23:18.107Z,97492.63
2022-09-16T11:26:22.567Z,97486.56
2022-09-16T11:29:14.499Z,97481.38
2022-09-16T11:31:52.315Z,97469.28
2022-09-16T11:35:18.175Z,97469.28
2022-09-16T11:37:52.101Z,97466.53
2022-09-16T11:40:39.282Z,97463.78
2022-09-16T11:43:27.805Z,97468.50
2022-09-16T11:46:25.178Z,97464.63
2022-09-16T11:48:54.842Z,97470.66
2022-09-16T11:51:46.080Z,97467.09
2022-09-16T11:54:30.093Z,97478.59
2022-09-16T11:56:58.534Z,97468.72
2022-09-16T11:59:32.127Z,97465.44
2022-09-16T12:02:12.632Z,97467.63
2022-09-16T12:04:47.380Z,97462.41
2022-09-16T12:07:34.539Z,97449.78
2022-09-16T12:10:21.744Z,97452.50
2022-09-16T12:13:09.829Z,97452.50
2022-09-16T12:15:41.476Z,97443.69
2022-09-16T12:18:33.438Z,97446.97
2022-09-16T12:21:19.932Z,97445.84
2022-09-16T12:23:50.680Z,97438.13
2022-09-16T12:26:20.420Z,97436.75
2022-09-16T12:29:02.299Z,97439.19
2022-09-16T12:31:41.025Z,97439.72
2022-09-16T12:35:01.066Z,97435.88
2022-09-16T12:37:54.446Z,97426.25
2022-09-16T12:40:25.302Z,97423.22
2022-09-16T12:42:52.221Z,97418.22
2022-09-16T12:45:40.688Z,97419.88
2022-09-16T12:48:26.297Z,97425.91
2022-09-16T12:51:39.195Z,97422.03
2022-09-16T12:54:51.180Z,97413.78
2022-09-16T12:57:52.024Z,97413.50
2022-09-16T13:00:22.277Z,97408.84
2022-09-16T13:02:57.211Z,97412.41
2022-09-16T13:05:33.062Z,97411.31
2022-09-16T13:08:04.101Z,97418.72
2022-09-16T13:13:40.849Z,97410.47
2022-09-16T13:16:08.631Z,97414.34
2022-09-16T13:18:42.689Z,97414.34
2022-09-16T13:21:28.190Z,97414.34
2022-09-16T13:24:13.769Z,97422.28
2022-09-16T13:26:42.473Z,97427.78
2022-09-16T13:29:34.365Z,97426.97
2022-09-16T13:32:01.524Z,97432.44
2022-09-16T13:34:28.598Z,97422.56
2022-09-16T13:36:55.608Z,97426.41
2022-09-16T13:39:30.723Z,97418.19
2022-09-16T13:41:58.179Z,97422.03
2022-09-16T13:44:40.075Z,97416.53
2022-09-16T13:47:09.692Z,97420.09
2022-09-16T13:49:45.449Z,97423.97
2022-09-16T13:52:22.203Z,97425.91
2022-09-16T13:55:10.047Z,97428.94
2022-09-16T13:57:57.023Z,97430.84
2022-09-16T14:00:26.518Z,97429.22
2022-09-16T14:02:59.720Z,97421.53
2022-09-16T14:05:56.441Z,97426.47
2022-09-16T14:08:36.243Z,97423.72
2022-09-16T14:11:06.223Z,97425.66
2022-09-16T14:13:50.971Z,97412.22
2022-09-16T14:16:19.865Z,97416.63
2022-09-16T14:19:16.052Z,97416.09
2022-09-16T14:21:42.929Z,97412.22
2022-09-16T14:24:20.179Z,97410.59
2022-09-16T14:27:05.855Z,97415.25
2022-09-16T14:29:32.875Z,97410.59
2022-09-16T14:31:59.767Z,97414.75
2022-09-16T14:34:32.502Z,97414.75
2022-09-16T14:36:59.728Z,97423.78
2022-09-16T14:39:28.024Z,97421.34
2022-09-16T14:42:03.646Z,97420.53
2022-09-16T14:44:42.211Z,97420.25
2022-09-16T14:47:47.351Z,97417.50
2022-09-16T14:50:19.712Z,97417.50
2022-09-16T14:52:57.515Z,97418.28
2022-09-16T14:55:31.686Z,97412.78
2022-09-16T14:57:59.188Z,97401.81
2022-09-16T15:00:30.926Z,97398.28
2022-09-16T15:03:03.074Z,97404.88
2022-09-16T15:05:31.685Z,97396.09
2022-09-16T15:08:14.897Z,97400.22
2022-09-16T15:10:51.924Z,97396.09
2022-09-16T15:13:20.931Z,97393.66
2022-09-16T15:15:51.386Z,97404.34
2022-09-16T15:18:33.045Z,97403.50
2022-09-16T15:21:12.824Z,97399.16
2022-09-16T15:23:40.499Z,97394.47
2022-09-16T15:26:16.285Z,97388.19
2022-09-16T15:29:02.510Z,97376.38
2022-09-16T15:31:32.361Z,97376.38
2022-09-16T15:33:59.999Z,97384.91
2022-09-16T15:36:41.279Z,97379.41
2022-09-16T15:39:37.350Z,97375.56
2022-09-16T15:42:19.080Z,97388.47
2022-09-16T15:44:52.792Z,97386.00
2022-09-16T15:47:41.610Z,97371.78
2022-09-16T15:50:16.254Z,97369.53
2022-09-16T15:53:06.861Z,97381.63
2022-09-16T15:55:37.724Z,97381.63
2022-09-16T15:58:43.685Z,97378.34
2022-09-16T16:01:21.261Z,97378.34
2022-09-16T16:03:59.043Z,97380.56
2022-09-16T16:06:53.593Z,97382.19
2022-09-16T16:09:29.360Z,97375.63
2022-09-16T16:12:01.066Z,97372.34
2022-09-16T16:14:32.506Z,97381.38
2022-09-16T16:17:13.285Z,97391.03
2022-09-16T16:19:42.363Z,97381.69
2022-09-16T16:22:09.734Z,97390.72
2022-09-16T16:24:37.250Z,97384.44
2022-09-16T16:27:04.564Z,97374.56
2022-09-16T16:29:31.690Z,97373.97
2022-09-16T16:32:04.637Z,97377.81
2022-09-16T16:34:33.157Z,97377.31
2022-09-16T16:37:00.610Z,97370.19
2022-09-16T16:39:27.597Z,97372.91
2022-09-16T16:41:54.569Z,97371.00
2022-09-16T16:44:23.062Z,97367.16
2022-09-16T16:46:51.633Z,97364.41
2022-09-16T16:49:18.684Z,97358.38
2022-09-16T16:51:45.768Z,97357.28
2022-09-16T16:54:13.325Z,97359.19
2022-09-16T16:56:40.477Z,97357.06
2022-09-16T16:59:08.790Z,97371.28
2022-09-16T17:01:36.041Z,97367.72
2022-09-16T17:04:03.448Z,97361.41
2022-09-16T17:06:31.225Z,97370.19
2022-09-16T17:08:58.368Z,97370.19
2022-09-16T17:11:26.188Z,97364.69
2022-09-16T17:13:54.779Z,97371.00
2022-09-16T17:16:22.570Z,97372.91
2022-09-16T17:18:49.546Z,97374.56
2022-09-16T17:21:19.279Z,97380.06
2022-09-16T17:23:46.308Z,97385.53
2022-09-16T17:26:13.376Z,97386.66
2022-09-16T17:28:41.180Z,97381.16
2022-09-16T17:31:12.105Z,97381.16
2022-09-16T17:33:39.071Z,97379.50
2022-09-16T17:36:07.723Z,97379.50
2022-09-16T17:38:34.890Z,97378.69
2022-09-16T17:41:03.658Z,97377.88
2022-09-16T17:43:32.663Z,97377.88
2022-09-16T17:46:01.077Z,97374.34
2022-09-16T17:48:29.332Z,97364.97
2022-09-16T17:50:56.361Z,97377.88
2022-09-16T17:53:23.467Z,97370.78
2022-09-16T17:55:50.737Z,97376.25
2022-09-16T17:58:17.908Z,97382.31
2022-09-16T18:00:45.056Z,97383.94
2022-09-16T18:03:12.501Z,97385.88
2022-09-16T18:05:39.528Z,97389.44
2022-09-16T18:08:06.784Z,97397.94
2022-09-16T18:10:33.799Z,97402.91
2022-09-16T18:13:01.098Z,97401.81
2022-09-16T18:15:28.041Z,97388.38
2022-09-16T18:17:55.095Z,97384.00
2022-09-16T18:20:22.016Z,97392.22
2022-09-16T18:22:48.921Z,97387.56
2022-09-16T18:25:15.955Z,97393.34
2022-09-16T18:27:44.283Z,97393.88
2022-09-16T18:30:12.045Z,97396.63
2022-09-16T18:32:39.004Z,97400.47
2022-09-16T18:35:06.473Z,97402.69
2022-09-16T18:37:33.414Z,97392.00
2022-09-16T18:40:00.632Z,97396.66
2022-09-16T18:42:27.639Z,97402.16
2022-09-16T18:44:54.673Z,97405.16
2022-09-16T18:47:21.605Z,97410.16
2022-09-16T18:49:48.544Z,97408.50
2022-09-16T18:52:15.537Z,97399.75
2022-09-16T18:54:44.230Z,97402.50
2022-09-16T18:57:11.188Z,97412.66
2022-09-16T18:59:38.120Z,97403.59
2022-09-16T19:02:06.179Z,97411.84
2022-09-16T19:04:37.123Z,97405.53
2022-09-16T19:07:08.489Z,97410.47
2022-09-16T19:09:36.682Z,97418.69
2022-09-16T19:12:04.134Z,97419.53
2022-09-16T19:14:31.080Z,97424.19
2022-09-16T19:16:58.071Z,97425.81
2022-09-16T19:19:25.053Z,97419.28
2022-09-16T19:21:52.049Z,97416.81
2022-09-16T19:24:20.972Z,97430.84
2022-09-16T19:26:48.509Z,97429.44
2022-09-16T19:29:15.682Z,97429.75
2022-09-16T19:31:43.377Z,97427.00
2022-09-16T19:34:10.687Z,97429.19
2022-09-16T19:36:37.669Z,97417.13
2022-09-16T19:39:05.530Z,97419.88
2022-09-16T19:41:35.467Z,97422.63
2022-09-16T19:44:04.940Z,97424.53
2022-09-16T19:46:34.540Z,97424.25
2022-09-16T19:49:01.715Z,97425.34
2022-09-16T19:51:29.327Z,97428.09
2022-09-16T19:53:56.671Z,97410.00
2022-09-16T19:56:27.963Z,97408.91
2022-09-16T19:58:55.160Z,97409.47
2022-09-16T20:01:26.365Z,97411.09
2022-09-16T20:03:53.577Z,97416.59
2022-09-16T20:06:28.597Z,97416.91
2022-09-16T20:08:57.263Z,97412.50
2022-09-16T20:11:26.016Z,97416.34
2022-09-16T20:13:55.374Z,97411.16
2022-09-16T20:16:25.718Z,97405.97
2022-09-16T20:18:52.838Z,97413.06
2022-09-16T20:21:21.316Z,97405.66
2022-09-16T20:23:48.387Z,97411.16
2022-09-16T20:26:19.928Z,97417.44
2022-09-16T20:28:51.208Z,97416.63
2022-09-16T20:31:20.848Z,97419.69
2022-09-16T20:33:48.016Z,97422.09
2022-09-16T20:36:17.062Z,97423.25
2022-09-16T20:38:44.171Z,97418.84
2022-09-16T20:41:18.202Z,97422.97
2022-09-16T20:43:45.259Z,97432.56
2022-09-16T20:46:17.197Z,97436.41
2022-09-16T20:48:44.311Z,97429.28
2022-09-16T20:51:17.712Z,97433.94
2022-09-16T20:53:44.877Z,97426.03
2022-09-16T20:56:13.498Z,97427.94
2022-09-16T20:58:40.697Z,97435.34
2022-09-16T21:01:25.542Z,97438.09
2022-09-16T21:03:56.361Z,97432.59
2022-09-16T21:06:23.741Z,97434.53
2022-09-16T21:08:54.449Z,97437.53
2022-09-16T21:11:21.616Z,97436.16
2022-09-16T21:13:59.396Z,97428.50
2022-09-16T21:16:28.252Z,97421.91
2022-09-16T21:18:56.136Z,97422.72
2022-09-16T21:21:24.740Z,97425.19
2022-09-16T21:23:53.065Z,97423.56
2022-09-16T21:26:21.461Z,97415.09
2022-09-16T21:28:59.100Z,97424.97
2022-09-16T21:31:27.129Z,97420.84
2022-09-16T21:33:54.256Z,97431.81
2022-09-16T21:36:22.134Z,97435.38
2022-09-16T21:38:49.171Z,97431.00
2022-09-16T21:41:17.684Z,97434.84
2022-09-16T21:43:48.309Z,97434.84
2022-09-16T21:46:20.373Z,97448.53
2022-09-16T21:48:50.663Z,97440.31
2022-09-16T21:51:18.637Z,97438.94
2022-09-16T21:53:45.883Z,97459.50
2022-09-16T21:56:17.531Z,97457.59
2022-09-16T21:58:44.663Z,97451.28
2022-09-16T22:01:17.103Z,97464.22
2022-09-16T22:03:45.253Z,97449.66
2022-09-16T22:06:13.072Z,97448.03
2022-09-16T22:08:40.097Z,97456.25
2022-09-16T22:11:09.228Z,97452.94
2022-09-16T22:13:36.273Z,97461.16
2022-09-16T22:16:03.593Z,97456.81
2022-09-16T22:18:31.096Z,97454.06
2022-09-16T22:21:16.130Z,97448.31
2022-09-16T22:23:43.109Z,97448.31
2022-09-16T22:26:11.729Z,97445.28
2022-09-16T22:28:39.206Z,97443.66
2022-09-16T22:31:13.673Z,97440.91
2022-09-16T22:33:41.415Z,97444.75
2022-09-16T22:36:09.852Z,97449.13
2022-09-16T22:38:36.976Z,97449.69
2022-09-16T22:41:07.624Z,97452.97
2022-09-16T22:43:38.507Z,97449.13
2022-09-16T22:46:24.508Z,97447.47
2022-09-16T22:48:51.630Z,97445.88
2022-09-16T22:51:19.124Z,97450.81
2022-09-16T22:53:46.181Z,97440.66
2022-09-16T22:56:27.225Z,97454.66
2022-09-16T22:58:55.008Z,97448.66
2022-09-16T23:01:32.212Z,97450.28
2022-09-16T23:04:00.757Z,97443.44
2022-09-16T23:06:29.164Z,97442.34
2022-09-16T23:08:56.185Z,97440.44
2022-09-16T23:11:28.927Z,97430.56
2022-09-16T23:13:56.743Z,97441.53
2022-09-16T23:16:27.183Z,97436.03
2022-09-16T23:18:55.446Z,97438.78
2022-09-16T23:21:22.575Z,97437.69
2022-09-16T23:23:56.871Z,97429.72
2022-09-16T23:26:25.675Z,97441.53
2022-09-16T23:28:53.730Z,97428.91
2022-09-16T23:31:22.936Z,97428.41
2022-09-16T23:33:50.013Z,97437.44
2022-09-16T23:36:17.427Z,97432.22
2022-09-16T23:38:44.421Z,97427.03
2022-09-16T23:41:13.605Z,97432.50
2022-09-16T23:43:41.834Z,97431.69
2022-09-16T23:46:12.384Z,97433.91
2022-09-16T23:48:39.346Z,97428.44
2022-09-16T23:51:07.526Z,97433.91
2022-09-16T23:53:35.509Z,97433.63
2022-09-16T23:56:08.998Z,97435.56
2022-09-16T23:58:36.075Z,97430.34
